createdAt,value
2018-06-05T00:00:14.982Z,983.79
2018-06-05T00:01:36.481Z,983.76
2018-06-05T00:02:36.482Z,983.76
2018-06-05T00:03:15.482Z,983.78
2018-06-05T00:04:15.482Z,983.77
2018-06-05T00:05:15.985Z,983.73
2018-06-05T00:06:15.990Z,983.75
2018-06-05T00:07:15.984Z,983.78
2018-06-05T00:08:15.982Z,983.80
2018-06-05T00:09:37.483Z,983.84
2018-06-05T00:10:18.484Z,983.84
2018-06-05T00:14:20.883Z,983.89
2018-06-05T00:15:20.890Z,983.87
2018-06-05T00:16:26.322Z,983.86
2018-06-05T00:17:21.396Z,983.88
2018-06-05T00:18:22.350Z,983.87
2018-06-05T00:19:21.390Z,983.88
2018-06-05T00:20:27.390Z,983.86
2018-06-05T00:21:35.891Z,983.86
2018-06-05T00:22:21.141Z,983.83
2018-06-05T00:23:21.889Z,983.80
2018-06-05T00:24:21.893Z,983.78
2018-06-05T00:25:22.389Z,983.80
2018-06-05T00:26:24.399Z,983.78
2018-06-05T00:27:22.400Z,983.77
2018-06-05T00:28:22.396Z,983.79
2018-06-05T00:29:24.888Z,983.78
2018-06-05T00:30:24.890Z,983.82
2018-06-05T00:31:22.895Z,983.79
2018-06-05T00:32:22.379Z,983.82
2018-06-05T00:33:23.385Z,983.82
2018-06-05T00:34:23.390Z,983.82
2018-06-05T00:35:23.390Z,983.81
2018-06-05T00:36:23.384Z,983.84
2018-06-05T00:37:23.895Z,983.81
2018-06-05T00:38:23.892Z,983.79
2018-06-05T00:39:23.889Z,983.80
2018-06-05T00:40:23.889Z,983.77
2018-06-05T00:41:24.396Z,983.81
2018-06-05T00:42:24.392Z,983.86
2018-06-05T00:43:24.389Z,983.85
2018-06-05T00:44:24.389Z,983.87
2018-06-05T00:45:24.889Z,983.86
2018-06-05T00:46:24.889Z,983.86
2018-06-05T00:47:45.228Z,983.88
2018-06-05T00:48:24.888Z,983.87
2018-06-05T00:49:27.360Z,983.86
2018-06-05T00:50:47.388Z,983.84
2018-06-05T00:51:24.739Z,983.85
2018-06-05T00:52:25.398Z,983.83
2018-06-05T00:53:25.889Z,983.85
2018-06-05T00:54:25.889Z,983.82
2018-06-05T00:55:25.885Z,983.81
2018-06-05T00:56:25.362Z,983.82
2018-06-05T00:57:26.396Z,983.82
2018-06-05T00:58:48.825Z,983.83
2018-06-05T00:59:47.389Z,983.83
2018-06-05T01:00:47.389Z,983.86
2018-06-05T01:01:25.991Z,983.87
2018-06-05T01:02:47.895Z,983.85
2018-06-05T01:03:47.895Z,983.87
2018-06-05T01:04:47.889Z,983.88
2018-06-05T01:05:48.393Z,983.85
2018-06-05T01:06:27.391Z,983.85
2018-06-05T01:07:48.386Z,983.83
2018-06-05T01:08:48.388Z,983.85
2018-06-05T01:09:33.890Z,983.83
2018-06-05T01:10:27.889Z,983.82
2018-06-05T01:11:48.889Z,983.80
2018-06-05T01:12:27.896Z,983.79
2018-06-05T01:13:48.495Z,983.81
2018-06-05T01:14:49.391Z,983.81
2018-06-05T01:15:28.389Z,983.80
2018-06-05T01:16:28.389Z,983.79
2018-06-05T01:17:49.888Z,983.81
2018-06-05T01:18:28.821Z,983.82
2018-06-05T01:19:28.891Z,983.80
2018-06-05T01:20:28.889Z,983.79
2018-06-05T01:21:29.399Z,983.81
2018-06-05T01:22:29.391Z,983.76
2018-06-05T01:23:29.389Z,983.75
2018-06-05T01:24:29.392Z,983.76
2018-06-05T01:25:50.916Z,983.78
2018-06-05T01:26:29.889Z,983.78
2018-06-05T01:27:29.888Z,983.75
2018-06-05T01:28:29.895Z,983.79
2018-06-05T01:29:36.389Z,983.79
2018-06-05T01:30:32.389Z,983.81
2018-06-05T01:31:51.389Z,983.86
2018-06-05T01:32:30.399Z,983.81
2018-06-05T01:33:30.891Z,983.78
2018-06-05T01:34:31.844Z,983.78
2018-06-05T01:35:30.888Z,983.76
2018-06-05T01:36:30.889Z,983.82
2018-06-05T01:37:31.390Z,983.74
2018-06-05T01:38:31.398Z,983.72
2018-06-05T01:39:31.389Z,983.75
2018-06-05T01:40:31.395Z,983.75
2018-06-05T01:41:31.906Z,983.74
2018-06-05T01:42:31.890Z,983.68
2018-06-05T01:43:31.889Z,983.69
2018-06-05T01:44:31.889Z,983.69
2018-06-05T01:45:32.390Z,983.68
2018-06-05T01:46:31.621Z,983.70
2018-06-05T01:47:34.395Z,983.68
2018-06-05T01:48:31.876Z,983.70
2018-06-05T01:50:00.825Z,983.65
2018-06-05T01:50:32.890Z,983.59
2018-06-05T01:51:32.241Z,983.64
2018-06-05T01:52:32.897Z,983.64
2018-06-05T01:53:33.394Z,983.64
2018-06-05T01:54:33.389Z,983.60
2018-06-05T01:55:33.393Z,983.61
2018-06-05T01:56:33.389Z,983.58
2018-06-05T01:57:54.890Z,983.65
2018-06-05T01:58:33.117Z,983.58
2018-06-05T01:59:33.223Z,983.59
2018-06-05T02:01:00.889Z,983.58
2018-06-05T02:01:33.889Z,983.60
2018-06-05T02:02:55.392Z,983.60
2018-06-05T02:03:34.392Z,983.57
2018-06-05T02:04:56.857Z,983.58
2018-06-05T02:05:34.392Z,983.57
2018-06-05T02:07:01.890Z,983.57
2018-06-05T02:07:34.890Z,983.62
2018-06-05T02:08:57.892Z,983.58
2018-06-05T02:09:34.897Z,983.58
2018-06-05T02:12:27.655Z,983.62
2018-06-05T02:13:06.013Z,983.59
2018-06-05T02:14:27.660Z,983.56
2018-06-05T02:15:07.163Z,983.62
2018-06-05T02:16:07.165Z,983.59
2018-06-05T02:17:07.167Z,983.60
2018-06-05T02:18:07.173Z,983.62
2018-06-05T02:20:38.921Z,983.63
2018-06-05T02:21:38.922Z,983.65
2018-06-05T02:22:38.925Z,983.63
2018-06-05T02:23:39.427Z,983.61
2018-06-05T02:24:39.425Z,983.63
2018-06-05T02:25:39.426Z,983.56
2018-06-05T02:26:39.424Z,983.66
2018-06-05T02:28:02.885Z,983.61
2018-06-05T02:28:42.358Z,983.63
2018-06-05T02:29:39.925Z,983.61
2018-06-05T02:30:39.924Z,983.66
2018-06-05T02:32:01.425Z,983.63
2018-06-05T02:33:01.425Z,983.68
2018-06-05T02:33:40.424Z,983.67
2018-06-05T02:36:12.052Z,983.67
2018-06-05T02:37:12.056Z,983.72
2018-06-05T02:38:11.522Z,983.69
2018-06-05T02:39:33.554Z,983.68
2018-06-05T02:40:33.552Z,983.67
2018-06-05T02:41:14.484Z,983.68
2018-06-05T02:42:12.552Z,983.73
2018-06-05T02:43:13.053Z,983.69
2018-06-05T02:44:14.008Z,983.68
2018-06-05T02:45:34.051Z,983.69
2018-06-05T02:46:13.052Z,983.71
2018-06-05T02:47:34.052Z,983.73
2018-06-05T02:48:12.685Z,983.74
2018-06-05T02:49:34.552Z,983.71
2018-06-05T02:50:13.552Z,983.73
2018-06-05T02:51:13.553Z,983.74
2018-06-05T02:52:14.052Z,983.75
2018-06-05T02:53:34.277Z,983.74
2018-06-05T02:54:14.055Z,983.80
2018-06-05T02:55:14.052Z,983.73
2018-06-05T02:58:08.795Z,983.75
2018-06-05T02:58:45.803Z,983.80
2018-06-05T02:59:45.802Z,983.77
2018-06-05T03:00:49.737Z,983.75
2018-06-05T03:01:46.305Z,983.79
2018-06-05T03:02:46.350Z,983.77
2018-06-05T03:03:46.804Z,983.78
2018-06-05T03:05:07.805Z,983.79
2018-06-05T03:05:46.809Z,983.80
2018-06-05T03:07:07.804Z,983.82
2018-06-05T03:07:46.804Z,983.89
2018-06-05T03:08:47.305Z,983.86
2018-06-05T03:09:47.309Z,983.89
2018-06-05T03:11:01.310Z,983.89
2018-06-05T03:11:47.303Z,983.93
2018-06-05T03:13:09.802Z,983.90
2018-06-05T03:14:08.806Z,983.94
2018-06-05T03:14:47.804Z,983.95
2018-06-05T03:15:47.803Z,983.94
2018-06-05T03:16:48.304Z,983.99
2018-06-05T03:18:00.562Z,984.02
2018-06-05T03:18:48.305Z,984.02
2018-06-05T03:19:48.303Z,984.03
2018-06-05T03:21:09.809Z,984.07
2018-06-05T03:21:48.804Z,984.09
2018-06-05T03:22:48.804Z,984.09
2018-06-05T03:23:48.826Z,984.13
2018-06-05T03:24:49.303Z,984.12
2018-06-05T03:25:49.303Z,984.14
2018-06-05T03:26:50.774Z,984.12
2018-06-05T03:27:49.303Z,984.16
2018-06-05T03:28:49.810Z,984.15
2018-06-05T03:29:49.803Z,984.15
2018-06-05T03:30:49.810Z,984.17
2018-06-05T03:32:10.884Z,984.11
2018-06-05T03:32:50.304Z,984.15
2018-06-05T03:33:50.309Z,984.14
2018-06-05T03:34:50.308Z,984.14
2018-06-05T03:35:50.303Z,984.13
2018-06-05T03:36:50.804Z,984.16
2018-06-05T03:37:50.804Z,984.17
2018-06-05T03:38:50.803Z,984.17
2018-06-05T03:39:50.802Z,984.13
2018-06-05T03:40:51.355Z,984.20
2018-06-05T03:41:51.304Z,984.19
2018-06-05T03:42:51.302Z,984.20
2018-06-05T03:43:51.310Z,984.21
2018-06-05T03:44:51.310Z,984.22
2018-06-05T03:45:51.805Z,984.27
2018-06-05T03:46:54.742Z,984.23
2018-06-05T03:47:51.804Z,984.20
2018-06-05T03:48:51.278Z,984.24
2018-06-05T03:50:13.301Z,984.23
2018-06-05T03:50:53.781Z,984.24
2018-06-05T03:52:12.639Z,984.25
2018-06-05T03:52:52.303Z,984.29
2018-06-05T03:53:58.804Z,984.28
2018-06-05T03:57:55.607Z,984.28
2018-06-05T03:58:55.614Z,984.29
2018-06-05T03:59:55.615Z,984.29
2018-06-05T04:00:55.215Z,984.29
2018-06-05T04:01:56.113Z,984.33
2018-06-05T04:02:56.111Z,984.34
2018-06-05T04:03:55.610Z,984.35
2018-06-05T04:05:17.623Z,984.33
2018-06-05T04:06:17.617Z,984.35
2018-06-05T04:07:17.618Z,984.34
2018-06-05T04:07:56.613Z,984.33
2018-06-05T04:08:57.114Z,984.34
2018-06-05T04:09:57.122Z,984.35
2018-06-05T04:10:57.122Z,984.33
2018-06-05T04:11:57.114Z,984.34
2018-06-05T04:12:59.614Z,984.35
2018-06-05T04:14:18.613Z,984.34
2018-06-05T04:14:57.614Z,984.32
2018-06-05T04:15:57.616Z,984.33
2018-06-05T04:16:59.052Z,984.32
2018-06-05T04:17:58.113Z,984.30
2018-06-05T04:18:58.113Z,984.35
2018-06-05T04:19:58.113Z,984.38
2018-06-05T04:20:58.122Z,984.37
2018-06-05T04:21:58.616Z,984.37
2018-06-05T04:22:58.619Z,984.34
2018-06-05T04:23:58.614Z,984.34
2018-06-05T04:24:58.613Z,984.34
2018-06-05T04:25:59.117Z,984.35
2018-06-05T04:26:59.134Z,984.35
2018-06-05T04:27:59.114Z,984.39
2018-06-05T04:28:58.597Z,984.36
2018-06-05T04:29:59.618Z,984.39
2018-06-05T04:30:59.614Z,984.40
2018-06-05T04:31:59.614Z,984.43
2018-06-05T04:32:59.109Z,984.45
2018-06-05T04:35:31.355Z,984.50
2018-06-05T04:36:33.363Z,984.48
2018-06-05T04:37:31.362Z,984.50
2018-06-05T04:38:31.866Z,984.56
2018-06-05T04:39:31.863Z,984.55
2018-06-05T04:40:31.860Z,984.53
2018-06-05T04:41:31.862Z,984.57
2018-06-05T04:42:32.372Z,984.59
2018-06-05T04:43:32.362Z,984.62
2018-06-05T04:44:32.363Z,984.64
2018-06-05T04:45:32.363Z,984.66
2018-06-05T04:46:31.962Z,984.65
2018-06-05T04:47:32.864Z,984.63
2018-06-05T04:48:32.862Z,984.68
2018-06-05T04:49:32.866Z,984.66
2018-06-05T04:50:54.365Z,984.65
2018-06-05T04:51:32.595Z,984.66
2018-06-05T04:52:33.364Z,984.64
2018-06-05T04:53:33.370Z,984.70
2018-06-05T04:54:33.862Z,984.67
2018-06-05T04:55:33.113Z,984.66
2018-06-05T04:56:33.863Z,984.70
2018-06-05T04:57:33.864Z,984.68
2018-06-05T04:58:34.362Z,984.67
2018-06-05T04:59:33.583Z,984.74
2018-06-05T05:02:07.298Z,984.75
2018-06-05T05:03:05.869Z,984.77
2018-06-05T05:04:07.298Z,984.74
2018-06-05T05:05:27.370Z,984.75
2018-06-05T05:07:37.777Z,984.76
2018-06-05T05:08:58.784Z,984.77
2018-06-05T05:09:37.785Z,984.80
2018-06-05T05:10:59.354Z,984.80
2018-06-05T05:11:40.265Z,984.78
2018-06-05T05:12:41.223Z,984.78
2018-06-05T05:13:38.284Z,984.82
2018-06-05T05:14:58.858Z,984.84
2018-06-05T05:15:58.950Z,984.81
2018-06-05T05:16:38.784Z,984.79
2018-06-05T05:17:59.792Z,984.83
2018-06-05T05:18:40.217Z,984.85
2018-06-05T05:19:39.292Z,984.82
2018-06-05T05:20:40.752Z,984.84
2018-06-05T05:21:39.284Z,984.86
2018-06-05T05:22:39.287Z,984.83
2018-06-05T05:23:39.790Z,984.82
2018-06-05T05:24:42.716Z,984.80
2018-06-05T05:25:39.795Z,984.80
2018-06-05T05:26:39.790Z,984.77
2018-06-05T05:28:01.286Z,984.79
2018-06-05T05:29:01.285Z,984.80
2018-06-05T05:29:40.285Z,984.81
2018-06-05T05:30:40.345Z,984.80
2018-06-05T05:32:07.784Z,984.80
2018-06-05T05:33:01.787Z,984.84
2018-06-05T05:34:01.785Z,984.80
2018-06-05T05:34:40.788Z,984.82
2018-06-05T05:36:01.789Z,984.80
2018-06-05T05:36:45.717Z,984.87
2018-06-05T05:38:01.485Z,984.82
2018-06-05T05:39:01.597Z,984.87
2018-06-05T05:39:41.286Z,984.87
2018-06-05T05:41:02.284Z,984.88
2018-06-05T05:41:55.785Z,984.87
2018-06-05T05:43:02.786Z,984.88
2018-06-05T05:43:41.785Z,984.83
2018-06-05T05:44:43.257Z,984.89
2018-06-05T05:47:13.520Z,984.88
2018-06-05T05:48:12.858Z,984.86
2018-06-05T05:49:16.517Z,984.87
2018-06-05T05:50:28.026Z,984.92
2018-06-05T05:51:14.022Z,984.90
2018-06-05T05:52:14.027Z,984.90
2018-06-05T05:53:14.020Z,984.95
2018-06-05T05:54:14.524Z,984.97
2018-06-05T05:55:14.611Z,984.99
2018-06-05T05:56:14.522Z,985.01
2018-06-05T05:57:28.519Z,984.98
2018-06-05T05:58:35.514Z,984.97
2018-06-05T05:59:14.123Z,985.00
2018-06-05T06:00:15.022Z,985.02
2018-06-05T06:01:36.020Z,985.00
2018-06-05T06:02:15.025Z,985.00
2018-06-05T06:03:39.501Z,984.99
2018-06-05T06:04:16.458Z,984.99
2018-06-05T06:05:15.521Z,984.95
2018-06-05T06:06:36.520Z,984.99
2018-06-05T06:07:14.998Z,984.98
2018-06-05T06:09:47.266Z,985.00
2018-06-05T06:10:47.284Z,984.97
2018-06-05T06:11:47.265Z,985.03
2018-06-05T06:12:47.764Z,984.97
2018-06-05T06:13:46.993Z,984.92
2018-06-05T06:15:08.769Z,984.99
2018-06-05T06:15:47.768Z,984.97
2018-06-05T06:17:15.268Z,984.94
2018-06-05T06:17:50.267Z,984.98
2018-06-05T06:18:48.268Z,985.03
2018-06-05T06:19:50.657Z,985.03
2018-06-05T06:20:48.937Z,985.01
2018-06-05T06:21:48.764Z,985.01
2018-06-05T06:22:48.765Z,984.99
2018-06-05T06:23:48.764Z,985.00
2018-06-05T06:24:48.366Z,985.00
2018-06-05T06:25:49.265Z,984.98
2018-06-05T06:26:48.631Z,985.00
2018-06-05T06:27:49.268Z,984.97
2018-06-05T06:29:03.766Z,985.01
2018-06-05T06:29:54.197Z,985.00
2018-06-05T06:30:49.723Z,985.04
2018-06-05T06:31:49.764Z,985.01
2018-06-05T06:32:50.264Z,985.01
2018-06-05T06:33:52.199Z,985.00
2018-06-05T06:35:11.233Z,985.00
2018-06-05T06:35:50.264Z,985.02
2018-06-05T06:37:11.765Z,985.06
2018-06-05T06:37:52.205Z,985.01
2018-06-05T06:38:50.768Z,985.03
2018-06-05T06:39:52.197Z,985.06
2018-06-05T06:40:50.800Z,985.01
2018-06-05T06:41:53.263Z,985.03
2018-06-05T06:42:51.265Z,985.03
2018-06-05T06:44:12.265Z,985.00
2018-06-05T06:44:50.765Z,985.02
2018-06-05T06:46:12.765Z,985.05
2018-06-05T06:46:51.766Z,985.10
2018-06-05T06:47:51.118Z,985.08
2018-06-05T06:48:51.789Z,985.12
2018-06-05T06:50:12.384Z,985.08
2018-06-05T06:50:53.703Z,985.08
2018-06-05T06:51:52.326Z,985.10
2018-06-05T06:52:54.199Z,985.09
2018-06-05T06:53:52.265Z,985.05
2018-06-05T06:55:14.215Z,985.09
2018-06-05T06:55:55.197Z,985.09
2018-06-05T06:56:52.765Z,985.09
2018-06-05T06:57:58.769Z,985.15
2018-06-05T06:58:54.765Z,985.14
2018-06-05T07:00:16.263Z,985.13
2018-06-05T07:02:45.675Z,985.11
2018-06-05T07:03:24.029Z,985.13
2018-06-05T07:04:24.686Z,985.12
2018-06-05T07:05:46.218Z,985.14
2018-06-05T07:06:25.181Z,985.11
2018-06-05T07:07:46.185Z,985.13
2018-06-05T07:08:25.182Z,985.12
2018-06-05T07:09:27.699Z,985.11
2018-06-05T07:10:25.683Z,985.07
2018-06-05T07:11:25.039Z,985.11
2018-06-05T07:12:25.683Z,985.15
2018-06-05T07:14:58.869Z,985.20
2018-06-05T07:16:18.438Z,985.18
2018-06-05T07:16:59.870Z,985.21
2018-06-05T07:18:18.960Z,985.18
2018-06-05T07:18:57.938Z,985.19
2018-06-05T07:20:18.291Z,985.23
2018-06-05T07:20:57.937Z,985.22
2018-06-05T07:23:29.686Z,985.22
2018-06-05T07:24:50.387Z,985.23
2018-06-05T07:25:29.148Z,985.26
2018-06-05T07:26:30.206Z,985.20
2018-06-05T07:27:30.193Z,985.23
2018-06-05T07:28:30.190Z,985.23
2018-06-05T07:29:30.194Z,985.26
2018-06-05T07:30:30.256Z,985.26
2018-06-05T07:31:34.130Z,985.28
2018-06-05T07:32:51.692Z,985.31
2018-06-05T07:33:30.694Z,985.27
2018-06-05T07:34:30.695Z,985.31
2018-06-05T07:35:30.693Z,985.33
2018-06-05T07:36:31.193Z,985.31
2018-06-05T07:37:30.421Z,985.32
2018-06-05T07:38:31.194Z,985.32
2018-06-05T07:39:31.195Z,985.30
2018-06-05T07:40:31.705Z,985.30
2018-06-05T07:41:31.704Z,985.29
2018-06-05T07:42:31.694Z,985.26
2018-06-05T07:43:31.692Z,985.31
2018-06-05T07:44:32.194Z,985.35
2018-06-05T07:45:32.194Z,985.29
2018-06-05T07:46:31.555Z,985.31
2018-06-05T07:47:32.193Z,985.32
2018-06-05T07:48:32.694Z,985.30
2018-06-05T07:49:38.731Z,985.28
2018-06-05T07:50:32.696Z,985.27
2018-06-05T07:51:32.172Z,985.27
2018-06-05T07:52:32.318Z,985.28
2018-06-05T07:53:34.132Z,985.28
2018-06-05T07:54:33.194Z,985.37
2018-06-05T07:55:54.220Z,985.35
2018-06-05T07:56:33.195Z,985.35
2018-06-05T07:57:33.700Z,985.32
2018-06-05T07:58:33.694Z,985.35
2018-06-05T07:59:54.062Z,985.37
2018-06-05T08:02:11.307Z,985.38
2018-06-05T08:03:19.314Z,985.34
2018-06-05T08:04:05.311Z,985.39
2018-06-05T08:05:07.815Z,985.36
2018-06-05T08:07:37.189Z,985.37
2018-06-05T08:08:37.195Z,985.40
2018-06-05T08:09:37.195Z,985.40
2018-06-05T08:11:01.202Z,985.41
2018-06-05T08:13:09.093Z,985.40
2018-06-05T08:14:08.441Z,985.37
2018-06-05T08:15:09.104Z,985.36
2018-06-05T08:16:09.595Z,985.40
2018-06-05T08:17:11.069Z,985.37
2018-06-05T08:18:08.928Z,985.40
2018-06-05T08:19:09.593Z,985.39
2018-06-05T08:20:10.095Z,985.39
2018-06-05T08:21:10.095Z,985.35
2018-06-05T08:22:09.455Z,985.35
2018-06-05T08:23:10.098Z,985.35
2018-06-05T08:24:10.597Z,985.34
2018-06-05T08:25:16.597Z,985.36
2018-06-05T08:26:10.596Z,985.38
2018-06-05T08:27:10.596Z,985.40
2018-06-05T08:28:11.100Z,985.41
2018-06-05T08:29:11.127Z,985.39
2018-06-05T08:30:11.108Z,985.38
2018-06-05T08:31:11.094Z,985.38
2018-06-05T08:32:15.070Z,985.39
2018-06-05T08:33:10.820Z,985.38
2018-06-05T08:34:17.601Z,985.42
2018-06-05T08:35:11.591Z,985.43
2018-06-05T08:36:26.094Z,985.39
2018-06-05T08:37:12.093Z,985.39
2018-06-05T08:38:11.480Z,985.43
2018-06-05T08:39:12.095Z,985.43
2018-06-05T08:40:35.596Z,985.46
2018-06-05T08:41:12.595Z,985.40
2018-06-05T08:42:12.595Z,985.42
2018-06-05T08:43:12.081Z,985.40
2018-06-05T08:44:19.101Z,985.42
2018-06-05T08:45:14.074Z,985.40
2018-06-05T08:46:13.493Z,985.40
2018-06-05T08:47:13.597Z,985.45
2018-06-05T08:49:44.136Z,985.40
2018-06-05T08:50:44.232Z,985.51
2018-06-05T08:51:44.865Z,985.46
2018-06-05T08:52:47.342Z,985.52
2018-06-05T08:53:45.476Z,985.43
2018-06-05T08:54:45.480Z,985.46
2018-06-05T08:55:45.366Z,985.47
2018-06-05T08:58:38.176Z,985.50
2018-06-05T09:00:48.663Z,985.47
2018-06-05T09:02:09.639Z,985.47
2018-06-05T09:02:48.638Z,985.45
2018-06-05T09:04:10.138Z,985.47
2018-06-05T09:04:55.138Z,985.49
2018-06-05T09:06:10.142Z,985.51
2018-06-05T09:06:52.071Z,985.49
2018-06-05T09:07:48.740Z,985.49
2018-06-05T09:10:21.002Z,985.49
2018-06-05T09:11:21.003Z,985.47
2018-06-05T09:12:21.003Z,985.46
2018-06-05T09:13:21.508Z,985.47
2018-06-05T09:14:24.936Z,985.47
2018-06-05T09:15:21.501Z,985.44
2018-06-05T09:16:21.505Z,985.47
2018-06-05T09:17:22.004Z,985.46
2018-06-05T09:18:22.031Z,985.44
2018-06-05T09:19:22.006Z,985.47
2018-06-05T09:20:21.498Z,985.44
2018-06-05T09:21:21.603Z,985.41
2018-06-05T09:22:22.502Z,985.41
2018-06-05T09:23:22.502Z,985.41
2018-06-05T09:24:22.510Z,985.40
2018-06-05T09:25:29.006Z,985.40
2018-06-05T09:26:22.228Z,985.42
2018-06-05T09:27:33.436Z,985.41
2018-06-05T09:28:23.008Z,985.44
2018-06-05T09:30:23.021Z,985.46
2018-06-05T09:32:23.530Z,985.48
2018-06-05T09:33:23.011Z,985.49
2018-06-05T09:34:23.566Z,985.47
2018-06-05T09:35:25.437Z,985.43
2018-06-05T09:36:23.503Z,985.41
2018-06-05T09:37:23.955Z,985.41
2018-06-05T09:38:24.002Z,985.43
2018-06-05T09:39:24.003Z,985.39
2018-06-05T09:40:24.008Z,985.39
2018-06-05T09:41:24.001Z,985.41
2018-06-05T09:42:24.503Z,985.42
2018-06-05T09:43:24.503Z,985.46
2018-06-05T09:44:24.505Z,985.41
2018-06-05T09:45:24.502Z,985.46
2018-06-05T09:46:25.013Z,985.40
2018-06-05T09:47:25.002Z,985.36
2018-06-05T09:48:25.003Z,985.35
2018-06-05T09:49:28.013Z,985.32
2018-06-05T09:50:25.114Z,985.31
2018-06-05T09:51:25.213Z,985.29
2018-06-05T09:52:25.548Z,985.27
2018-06-05T09:53:25.503Z,985.27
2018-06-05T09:54:26.003Z,985.30
2018-06-05T09:55:26.007Z,985.33
2018-06-05T09:56:26.011Z,985.33
2018-06-05T09:57:26.001Z,985.28
2018-06-05T09:58:26.623Z,985.27
2018-06-05T09:59:26.529Z,985.25
2018-06-05T10:00:54.137Z,985.27
2018-06-05T10:01:33.013Z,985.25
2018-06-05T10:02:26.617Z,985.26
2018-06-05T10:03:48.623Z,985.27
2018-06-05T10:04:27.507Z,985.26
2018-06-05T10:05:26.988Z,985.16
2018-06-05T10:07:59.270Z,985.19
2018-06-05T10:09:13.322Z,985.21
2018-06-05T10:09:59.287Z,985.21
2018-06-05T10:10:59.780Z,985.17
2018-06-05T10:11:59.778Z,985.17
2018-06-05T10:12:59.760Z,985.17
2018-06-05T10:13:59.780Z,985.15
2018-06-05T10:14:59.384Z,985.13
2018-06-05T10:16:02.213Z,985.16
2018-06-05T10:17:00.280Z,985.21
2018-06-05T10:18:02.785Z,985.16
2018-06-05T10:19:00.864Z,985.21
2018-06-05T10:20:00.745Z,985.19
2018-06-05T10:21:00.785Z,985.17
2018-06-05T10:22:00.779Z,985.19
2018-06-05T10:23:01.280Z,985.19
2018-06-05T10:24:01.280Z,985.13
2018-06-05T10:25:01.280Z,985.13
2018-06-05T10:26:01.281Z,985.12
2018-06-05T10:27:00.878Z,985.14
2018-06-05T10:28:01.781Z,985.13
2018-06-05T10:29:01.784Z,985.06
2018-06-05T10:30:01.787Z,985.04
2018-06-05T10:31:02.285Z,985.01
2018-06-05T10:32:02.284Z,985.00
2018-06-05T10:33:01.636Z,984.96
2018-06-05T10:34:03.214Z,984.95
2018-06-05T10:35:23.778Z,984.96
2018-06-05T10:36:16.801Z,984.95
2018-06-05T10:37:02.781Z,984.98
2018-06-05T10:38:02.259Z,984.93
2018-06-05T10:39:03.283Z,984.94
2018-06-05T10:41:36.467Z,984.90
2018-06-05T10:42:36.471Z,984.90
2018-06-05T10:43:36.469Z,984.94
2018-06-05T10:44:59.400Z,984.87
2018-06-05T10:46:03.992Z,984.85
2018-06-05T10:46:43.037Z,984.88
2018-06-05T10:47:36.972Z,984.85
2018-06-05T10:50:22.716Z,984.86
2018-06-05T10:51:29.725Z,984.89
2018-06-05T10:52:08.723Z,984.85
2018-06-05T10:53:09.223Z,984.86
2018-06-05T10:54:11.224Z,984.85
2018-06-05T10:55:09.232Z,984.83
2018-06-05T10:56:09.736Z,984.81
2018-06-05T10:57:09.724Z,984.81
2018-06-05T10:58:08.953Z,984.83
2018-06-05T10:59:09.723Z,984.77
2018-06-05T11:00:30.759Z,984.81
2018-06-05T11:01:31.225Z,984.79
2018-06-05T11:02:31.232Z,984.76
2018-06-05T11:03:09.581Z,984.75
2018-06-05T11:04:10.276Z,984.73
2018-06-05T11:05:12.725Z,984.76
2018-06-05T11:06:10.763Z,984.71
2018-06-05T11:07:10.724Z,984.73
2018-06-05T11:08:10.727Z,984.72
2018-06-05T11:09:25.247Z,984.77
2018-06-05T11:10:11.226Z,984.74
2018-06-05T11:11:11.226Z,984.71
2018-06-05T11:12:13.234Z,984.71
2018-06-05T11:13:11.724Z,984.72
2018-06-05T11:14:32.725Z,984.71
2018-06-05T11:15:11.731Z,984.71
2018-06-05T11:16:32.194Z,984.71
2018-06-05T11:17:26.228Z,984.68
2018-06-05T11:18:11.464Z,984.68
2018-06-05T11:19:12.225Z,984.67
2018-06-05T11:20:12.225Z,984.69
2018-06-05T11:21:14.186Z,984.65
2018-06-05T11:22:11.928Z,984.65
2018-06-05T11:23:12.014Z,984.66
2018-06-05T11:24:12.816Z,984.72
2018-06-05T11:25:27.222Z,984.69
2018-06-05T11:27:44.493Z,984.61
2018-06-05T11:28:44.500Z,984.57
2018-06-05T11:29:44.502Z,984.61
2018-06-05T11:30:58.995Z,984.56
2018-06-05T11:33:16.384Z,984.55
2018-06-05T11:34:16.393Z,984.58
2018-06-05T11:35:16.393Z,984.52
2018-06-05T11:36:16.904Z,984.51
2018-06-05T11:37:16.895Z,984.57
2018-06-05T11:38:16.895Z,984.54
2018-06-05T11:39:16.892Z,984.54
2018-06-05T11:40:18.890Z,984.51
2018-06-05T11:43:46.889Z,984.53
2018-06-05T11:46:18.004Z,984.52
2018-06-05T11:47:39.651Z,984.50
2018-06-05T11:48:33.152Z,984.49
2018-06-05T11:49:25.150Z,984.49
2018-06-05T11:50:19.151Z,984.49
2018-06-05T11:51:20.144Z,984.52
2018-06-05T11:52:40.665Z,984.52
2018-06-05T11:53:19.679Z,984.51
2018-06-05T11:54:40.674Z,984.48
2018-06-05T11:55:20.582Z,984.46
2018-06-05T11:56:20.158Z,984.46
2018-06-05T11:57:19.376Z,984.48
2018-06-05T11:58:20.150Z,984.48
2018-06-05T11:59:20.150Z,984.49
2018-06-05T12:00:20.661Z,984.48
2018-06-05T12:01:20.649Z,984.49
2018-06-05T12:02:20.651Z,984.49
2018-06-05T12:03:20.655Z,984.47
2018-06-05T12:04:42.583Z,984.47
2018-06-05T12:05:44.165Z,984.46
2018-06-05T12:06:21.149Z,984.46
2018-06-05T12:07:21.151Z,984.45
2018-06-05T12:08:21.187Z,984.42
2018-06-05T12:09:23.084Z,984.38
2018-06-05T12:10:21.696Z,984.41
2018-06-05T12:11:27.649Z,984.38
2018-06-05T12:12:21.651Z,984.37
2018-06-05T12:13:23.163Z,984.45
2018-06-05T12:14:23.106Z,984.40
2018-06-05T12:15:22.152Z,984.36
2018-06-05T12:16:28.655Z,984.32
2018-06-05T12:17:21.762Z,984.35
2018-06-05T12:18:22.649Z,984.33
2018-06-05T12:20:54.163Z,984.32
2018-06-05T12:21:54.175Z,984.29
2018-06-05T12:22:53.645Z,984.27
2018-06-05T12:26:57.394Z,984.29
2018-06-05T12:27:57.393Z,984.35
2018-06-05T12:28:57.393Z,984.29
2018-06-05T12:29:58.889Z,984.30
2018-06-05T12:31:18.893Z,984.21
2018-06-05T12:32:23.325Z,984.21
2018-06-05T12:32:59.906Z,984.18
2018-06-05T12:33:58.393Z,984.16
2018-06-05T12:34:58.394Z,984.19
2018-06-05T12:35:57.750Z,984.16
2018-06-05T12:37:19.422Z,984.22
2018-06-05T12:37:58.031Z,984.24
2018-06-05T12:39:00.899Z,984.24
2018-06-05T12:40:00.894Z,984.19
2018-06-05T12:41:00.895Z,984.17
2018-06-05T12:42:21.392Z,984.10
2018-06-05T12:43:00.390Z,984.13
2018-06-05T12:44:00.326Z,984.12
2018-06-05T12:44:59.395Z,984.12
2018-06-05T12:46:01.326Z,984.13
2018-06-05T12:46:59.101Z,984.13
2018-06-05T12:48:20.897Z,984.13
2018-06-05T12:48:59.895Z,984.13
2018-06-05T12:49:59.507Z,984.16
2018-06-05T12:52:52.787Z,984.11
2018-06-05T12:53:31.796Z,984.04
2018-06-05T12:54:31.796Z,984.05
2018-06-05T12:55:35.293Z,984.08
2018-06-05T12:56:54.293Z,984.09
2018-06-05T12:57:52.689Z,984.09
2018-06-05T12:58:53.298Z,984.07
2018-06-05T12:59:32.795Z,984.04
2018-06-05T13:00:32.794Z,984.10
2018-06-05T13:01:32.728Z,984.11
2018-06-05T13:02:32.796Z,984.12
2018-06-05T13:03:33.294Z,984.09
2018-06-05T13:04:34.737Z,984.06
2018-06-05T13:05:32.603Z,984.06
2018-06-05T13:06:55.304Z,983.99
2018-06-05T13:07:33.296Z,984.01
2018-06-05T13:08:33.799Z,984.06
2018-06-05T13:09:33.796Z,984.07
2018-06-05T13:10:35.228Z,984.10
2018-06-05T13:11:33.797Z,984.10
2018-06-05T13:14:05.562Z,984.09
2018-06-05T13:15:05.569Z,984.07
2018-06-05T13:16:05.077Z,984.04
2018-06-05T13:17:06.070Z,984.05
2018-06-05T13:18:06.071Z,984.06
2018-06-05T13:19:05.429Z,984.13
2018-06-05T13:20:06.076Z,984.04
2018-06-05T13:21:20.570Z,984.10
2018-06-05T13:22:06.571Z,984.11
2018-06-05T13:23:07.578Z,984.07
2018-06-05T13:24:06.573Z,984.10
2018-06-05T13:25:28.073Z,984.07
2018-06-05T13:27:52.454Z,984.07